PWSweather.com
Personal Weather Stations
Station Observations
MICROSHIP
Friday Harbor, Friday Harbor, WA 98250

Friday HarborFriday Harbor, WA 98250

Lat: 48.538, Lon: -123.016

Elevation: 16

Station Type: Ambient Weather WS-1001-WIFI ObserverIP

https://microship.com/

Latest ConditionsUpdated 11:10:00 PM PDT Sunday, Oct 20, 2019
Currently Today's Max Today's Min Today's Average
Temperature 46.9°F8.3°C 51.2°F10.7°C 39.6°F4.2°C 48.3°F9.1°C
Dew Point 15.5°F-9.2°C 17.8°F-7.9°C -0.7°F-18.2°C 9.8°F-12.3°C
Winds Calm Calm 15.6 mph -25.1 kmh - - 5.0 mph 8.0 kmh
Wind Gusts -- 32.4 mph52.1 kmh - -
Humidity 28% 30% 12% 21%
Pressure 30.24 in1024.0 mb 30.24 in1024.0 mb 30.03 in1016.9 mb -
Precipitation - 0.09 in2.3 mm - -
Hour Temp Dew Point Humidity Winds Wind Gusts Pressure Precip Precip Rate Daily Precip Total
11:10 PM 46.9°F8.3°C 15.5°F-9.2°C 28% Calm Calm -- 30.24 in1024.0 mb 0.00 in0.0 mm 0.00 in0.0 mm 0.09 in2.3 mm
11:05 PM 47.1°F8.4°C 15.7°F-9.1°C 28% Calm Calm -- 30.24 in1024.0 mb 0.00 in0.0 mm 0.00 in0.0 mm 0.09 in2.3 mm
11:00 PM 47.4°F8.6°C 16.0°F-8.9°C 28% Calm Calm -- 30.24 in1024.0 mb 0.00 in0.0 mm 0.00 in0.0 mm 0.09 in2.3 mm
10:55 PM 47.8°F8.8°C 15.7°F-9.1°C 27% Calm Calm -- 30.24 in1024.0 mb 0.00 in0.0 mm 0.00 in0.0 mm 0.09 in2.3 mm
10:50 PM 48.3°F9.1°C 15.7°F-9.1°C 27% 0.6 mph WNW1.0 kmh WNW 2.5 mph4.0 kmh 30.23 in1023.7 mb 0.00 in0.0 mm 0.00 in0.0 mm 0.09 in2.3 mm
10:45 PM 48.8°F9.3°C 15.4°F-9.2°C 26% 0.2 mph WNW0.3 kmh WNW 2.5 mph4.0 kmh 30.23 in1023.7 mb 0.00 in0.0 mm 0.00 in0.0 mm 0.09 in2.3 mm
10:40 PM 49.1°F9.5°C 15.0°F-9.4°C 25% Calm Calm -- 30.23 in1023.7 mb 0.00 in0.0 mm 0.00 in0.0 mm 0.09 in2.3 mm
10:35 PM 49.2°F9.6°C 14.9°F-9.5°C 25% 0.1 mph NNW0.2 kmh NNW 2.5 mph4.0 kmh 30.23 in1023.7 mb 0.00 in0.0 mm 0.00 in0.0 mm 0.09 in2.3 mm
10:30 PM 49.4°F9.7°C 14.4°F-9.8°C 24% 0.4 mph N0.6 kmh N 4.9 mph7.9 kmh 30.23 in1023.7 mb 0.00 in0.0 mm 0.00 in0.0 mm 0.09 in2.3 mm
10:25 PM 49.7°F9.8°C 10.2°F-12.1°C 20% Calm Calm -- 30.22 in1023.4 mb 0.00 in0.0 mm 0.00 in0.0 mm 0.09 in2.3 mm
10:20 PM 49.8°F9.9°C 7.7°F-13.5°C 18% 1.0 mph SW1.6 kmh SW 4.9 mph7.9 kmh 30.22 in1023.4 mb 0.00 in0.0 mm 0.00 in0.0 mm 0.09 in2.3 mm
10:15 PM 49.8°F9.9°C 9.4°F-12.6°C 19% 1.1 mph SW1.8 kmh SW 4.9 mph7.9 kmh 30.22 in1023.4 mb 0.00 in0.0 mm 0.00 in0.0 mm 0.09 in2.3 mm
10:10 PM 50.0°F10.0°C 12.5°F-10.8°C 22% Calm Calm -- 30.21 in1023.0 mb 0.00 in0.0 mm 0.00 in0.0 mm 0.09 in2.3 mm
10:05 PM 50.2°F10.1°C 13.0°F-10.6°C 22% Calm Calm -- 30.21 in1023.0 mb 0.00 in0.0 mm 0.00 in0.0 mm 0.09 in2.3 mm
10:00 PM 50.4°F10.2°C 9.9°F-12.3°C 19% 0.2 mph N0.3 kmh N 2.5 mph4.0 kmh 30.21 in1023.0 mb 0.00 in0.0 mm 0.00 in0.0 mm 0.09 in2.3 mm
09:55 PM 50.4°F10.2°C 7.5°F-13.6°C 17% 1.2 mph WSW1.9 kmh WSW 7.4 mph11.9 kmh 30.21 in1023.0 mb 0.00 in0.0 mm 0.00 in0.0 mm 0.09 in2.3 mm
09:50 PM 50.4°F10.2°C 7.1°F-13.8°C 17% 2.2 mph SW3.5 kmh SW 7.4 mph11.9 kmh 30.21 in1023.0 mb 0.00 in0.0 mm 0.00 in0.0 mm 0.09 in2.3 mm
09:45 PM 50.4°F10.2°C 7.3°F-13.7°C 17% 2.1 mph WSW3.4 kmh WSW 7.4 mph11.9 kmh 30.20 in1022.7 mb 0.00 in0.0 mm 0.00 in0.0 mm 0.09 in2.3 mm
09:40 PM 50.4°F10.2°C 8.5°F-13.1°C 18% 1.4 mph SW2.3 kmh SW 4.9 mph7.9 kmh 30.20 in1022.7 mb 0.00 in0.0 mm 0.00 in0.0 mm 0.09 in2.3 mm
09:35 PM 50.4°F10.2°C 8.5°F-13.1°C 18% 0.7 mph WSW1.1 kmh WSW 4.9 mph7.9 kmh 30.20 in1022.7 mb 0.00 in0.0 mm 0.00 in0.0 mm 0.09 in2.3 mm
09:30 PM 50.5°F10.3°C 8.0°F-13.3°C 18% 1.2 mph WSW1.9 kmh WSW 7.4 mph11.9 kmh 30.19 in1022.4 mb 0.00 in0.0 mm 0.00 in0.0 mm 0.09 in2.3 mm
09:25 PM 50.5°F10.3°C 7.9°F-13.4°C 17% 1.0 mph WSW1.6 kmh WSW 7.4 mph11.9 kmh 30.19 in1022.4 mb 0.00 in0.0 mm 0.00 in0.0 mm 0.09 in2.3 mm
09:20 PM 50.7°F10.4°C 8.7°F-12.9°C 18% 0.8 mph W1.3 kmh W 4.9 mph7.9 kmh 30.19 in1022.4 mb 0.00 in0.0 mm 0.00 in0.0 mm 0.09 in2.3 mm
09:15 PM 50.7°F10.4°C 8.5°F-13.1°C 18% 0.6 mph SW1.0 kmh SW 4.9 mph7.9 kmh 30.18 in1022.0 mb 0.00 in0.0 mm 0.00 in0.0 mm 0.09 in2.3 mm
09:10 PM 50.9°F10.5°C 8.5°F-13.1°C 18% 0.8 mph WSW1.3 kmh WSW 2.5 mph4.0 kmh 30.19 in1022.4 mb 0.00 in0.0 mm 0.00 in0.0 mm 0.09 in2.3 mm
09:05 PM 51.0°F10.6°C 7.7°F-13.5°C 17% 0.9 mph W1.4 kmh W 4.9 mph7.9 kmh 30.19 in1022.4 mb 0.00 in0.0 mm 0.00 in0.0 mm 0.09 in2.3 mm
09:00 PM 51.1°F10.6°C 7.3°F-13.7°C 17% 0.7 mph WSW1.1 kmh WSW 4.9 mph7.9 kmh 30.18 in1022.0 mb 0.00 in0.0 mm 0.00 in0.0 mm 0.09 in2.3 mm
08:55 PM 51.1°F10.6°C 5.9°F-14.5°C 16% 2.9 mph WSW4.7 kmh WSW 9.8 mph15.8 kmh 30.18 in1022.0 mb 0.00 in0.0 mm 0.00 in0.0 mm 0.09 in2.3 mm
08:50 PM 51.1°F10.6°C 6.4°F-14.2°C 16% 2.6 mph WSW4.2 kmh WSW 9.8 mph15.8 kmh 30.18 in1022.0 mb 0.00 in0.0 mm 0.00 in0.0 mm 0.09 in2.3 mm
08:45 PM 51.1°F10.6°C 6.5°F-14.2°C 16% 1.7 mph WSW2.7 kmh WSW 7.4 mph11.9 kmh 30.17 in1021.7 mb 0.00 in0.0 mm 0.00 in0.0 mm 0.09 in2.3 mm
08:40 PM 51.2°F10.7°C 5.5°F-14.7°C 15% 2.7 mph WSW4.3 kmh WSW 7.4 mph11.9 kmh 30.17 in1021.7 mb 0.00 in0.0 mm 0.00 in0.0 mm 0.09 in2.3 mm
08:35 PM 51.1°F10.6°C 4.8°F-15.1°C 15% 4.2 mph WSW6.8 kmh WSW 9.8 mph15.8 kmh 30.16 in1021.3 mb 0.00 in0.0 mm 0.00 in0.0 mm 0.09 in2.3 mm
08:30 PM 51.1°F10.6°C 5.1°F-14.9°C 15% 3.5 mph SW5.6 kmh SW 7.4 mph11.9 kmh 30.16 in1021.3 mb 0.00 in0.0 mm 0.00 in0.0 mm 0.09 in2.3 mm
08:25 PM 51.1°F10.6°C 4.6°F-15.2°C 15% 2.7 mph WSW4.3 kmh WSW 7.4 mph11.9 kmh 30.16 in1021.3 mb 0.00 in0.0 mm 0.00 in0.0 mm 0.09 in2.3 mm
08:20 PM 51.1°F10.6°C 4.4°F-15.3°C 15% 3.9 mph WSW6.3 kmh WSW 7.4 mph11.9 kmh 30.16 in1021.3 mb 0.00 in0.0 mm 0.00 in0.0 mm 0.09 in2.3 mm
08:15 PM 51.1°F10.6°C 4.4°F-15.3°C 15% 3.8 mph SW6.1 kmh SW 9.8 mph15.8 kmh 30.15 in1021.0 mb 0.00 in0.0 mm 0.00 in0.0 mm 0.09 in2.3 mm
08:10 PM 51.1°F10.6°C 5.0°F-15.0°C 15% 4.2 mph SW6.8 kmh SW 9.8 mph15.8 kmh 30.15 in1021.0 mb 0.00 in0.0 mm 0.00 in0.0 mm 0.09 in2.3 mm
08:05 PM 51.1°F10.6°C 6.0°F-14.4°C 16% 4.2 mph SW6.8 kmh SW 7.4 mph11.9 kmh 30.15 in1021.0 mb 0.00 in0.0 mm 0.00 in0.0 mm 0.09 in2.3 mm
08:00 PM 51.1°F10.6°C 6.6°F-14.1°C 16% 3.8 mph SW6.1 kmh SW 9.8 mph15.8 kmh 30.14 in1020.7 mb 0.00 in0.0 mm 0.00 in0.0 mm 0.09 in2.3 mm
07:55 PM 51.1°F10.6°C 7.1°F-13.8°C 16% 4.1 mph SW6.6 kmh SW 7.4 mph11.9 kmh 30.14 in1020.7 mb 0.00 in0.0 mm 0.00 in0.0 mm 0.09 in2.3 mm
07:50 PM 51.1°F10.6°C 6.3°F-14.3°C 16% 4.6 mph SW7.4 kmh SW 9.8 mph15.8 kmh 30.14 in1020.7 mb 0.00 in0.0 mm 0.00 in0.0 mm 0.09 in2.3 mm
07:45 PM 51.1°F10.6°C 5.1°F-14.9°C 15% 5.9 mph SW9.5 kmh SW 15.0 mph24.1 kmh 30.14 in1020.7 mb 0.00 in0.0 mm 0.00 in0.0 mm 0.09 in2.3 mm
07:40 PM 51.1°F10.6°C 4.3°F-15.4°C 14% 4.3 mph SW6.9 kmh SW 9.8 mph15.8 kmh 30.13 in1020.3 mb 0.00 in0.0 mm 0.00 in0.0 mm 0.09 in2.3 mm
07:35 PM 51.1°F10.6°C 4.5°F-15.3°C 15% 5.5 mph WSW8.9 kmh WSW 15.0 mph24.1 kmh 30.13 in1020.3 mb 0.00 in0.0 mm 0.00 in0.0 mm 0.09 in2.3 mm
07:30 PM 51.1°F10.6°C 6.1°F-14.4°C 16% 4.5 mph WSW7.2 kmh WSW 9.8 mph15.8 kmh 30.12 in1020.0 mb 0.00 in0.0 mm 0.00 in0.0 mm 0.09 in2.3 mm
07:25 PM 51.1°F10.6°C 6.8°F-14.0°C 16% 5.0 mph SW8.0 kmh SW 9.8 mph15.8 kmh 30.12 in1020.0 mb 0.00 in0.0 mm 0.00 in0.0 mm 0.09 in2.3 mm
07:20 PM 51.1°F10.6°C 7.2°F-13.8°C 17% 7.1 mph SW11.4 kmh SW 9.8 mph15.8 kmh 30.12 in1020.0 mb 0.00 in0.0 mm 0.00 in0.0 mm 0.09 in2.3 mm
07:15 PM 51.1°F10.6°C 8.5°F-13.1°C 18% 4.9 mph SW7.9 kmh SW 9.8 mph15.8 kmh 30.12 in1020.0 mb 0.00 in0.0 mm 0.00 in0.0 mm 0.09 in2.3 mm
07:10 PM 51.1°F10.6°C 9.0°F-12.8°C 18% 5.0 mph SW8.0 kmh SW 9.8 mph15.8 kmh 30.11 in1019.6 mb 0.00 in0.0 mm 0.00 in0.0 mm 0.09 in2.3 mm
07:05 PM 51.1°F10.6°C 9.1°F-12.7°C 18% 3.9 mph SW6.3 kmh SW 7.4 mph11.9 kmh 30.11 in1019.6 mb 0.00 in0.0 mm 0.00 in0.0 mm 0.09 in2.3 mm
07:00 PM 51.1°F10.6°C 9.1°F-12.7°C 18% 6.7 mph SW10.8 kmh SW 9.8 mph15.8 kmh 30.11 in1019.6 mb 0.00 in0.0 mm 0.00 in0.0 mm 0.09 in2.3 mm
06:55 PM 51.1°F10.6°C 9.2°F-12.7°C 18% 4.7 mph SW7.6 kmh SW 9.8 mph15.8 kmh 30.11 in1019.6 mb 0.00 in0.0 mm 0.00 in0.0 mm 0.09 in2.3 mm
06:50 PM 51.1°F10.6°C 10.0°F-12.2°C 19% 3.9 mph SW6.3 kmh SW 9.8 mph15.8 kmh 30.11 in1019.6 mb 0.00 in0.0 mm 0.00 in0.0 mm 0.09 in2.3 mm
06:45 PM 51.1°F10.6°C 10.0°F-12.2°C 19% 4.6 mph SW7.4 kmh SW 7.4 mph11.9 kmh 30.11 in1019.6 mb 0.00 in0.0 mm 0.00 in0.0 mm 0.09 in2.3 mm
06:40 PM 51.0°F10.6°C 10.4°F-12.0°C 19% 3.5 mph WSW5.6 kmh WSW 7.4 mph11.9 kmh 30.11 in1019.6 mb 0.00 in0.0 mm 0.00 in0.0 mm 0.09 in2.3 mm
06:35 PM 50.9°F10.5°C 10.1°F-12.2°C 19% 3.3 mph SW5.3 kmh SW 7.4 mph11.9 kmh 30.11 in1019.6 mb 0.00 in0.0 mm 0.00 in0.0 mm 0.09 in2.3 mm
06:30 PM 50.9°F10.5°C 10.1°F-12.2°C 19% 3.6 mph WSW5.8 kmh WSW 7.4 mph11.9 kmh 30.11 in1019.6 mb 0.00 in0.0 mm 0.00 in0.0 mm 0.09 in2.3 mm
06:25 PM 50.9°F10.5°C 10.1°F-12.2°C 19% 4.8 mph SW7.7 kmh SW 7.4 mph11.9 kmh 30.10 in1019.3 mb 0.00 in0.0 mm 0.00 in0.0 mm 0.09 in2.3 mm
06:20 PM 50.9°F10.5°C 11.3°F-11.5°C 20% 4.5 mph SW7.2 kmh SW 7.4 mph11.9 kmh 30.10 in1019.3 mb 0.00 in0.0 mm 0.00 in0.0 mm 0.09 in2.3 mm
06:15 PM 50.7°F10.4°C 11.9°F-11.2°C 21% 4.4 mph SW7.1 kmh SW 7.4 mph11.9 kmh 30.10 in1019.3 mb 0.00 in0.0 mm 0.00 in0.0 mm 0.09 in2.3 mm
06:10 PM 50.7°F10.4°C 13.3°F-10.4°C 22% 4.3 mph SW6.9 kmh SW 9.8 mph15.8 kmh 30.10 in1019.3 mb 0.00 in0.0 mm 0.00 in0.0 mm 0.09 in2.3 mm
06:05 PM 50.7°F10.4°C 13.3°F-10.4°C 22% 4.6 mph SW7.4 kmh SW 9.8 mph15.8 kmh 30.10 in1019.3 mb 0.00 in0.0 mm 0.00 in0.0 mm 0.09 in2.3 mm
06:00 PM 50.6°F10.3°C 13.1°F-10.5°C 22% 2.8 mph SW4.5 kmh SW 7.4 mph11.9 kmh 30.09 in1019.0 mb 0.00 in0.0 mm 0.00 in0.0 mm 0.09 in2.3 mm
05:55 PM 50.5°F10.3°C 12.8°F-10.7°C 22% 3.7 mph SW6.0 kmh SW 7.4 mph11.9 kmh 30.10 in1019.3 mb 0.00 in0.0 mm 0.00 in0.0 mm 0.09 in2.3 mm
05:50 PM 50.4°F10.2°C 12.9°F-10.6°C 22% 4.8 mph SW7.7 kmh SW 12.3 mph19.8 kmh 30.09 in1019.0 mb 0.00 in0.0 mm 0.00 in0.0 mm 0.09 in2.3 mm
05:45 PM 50.4°F10.2°C 13.0°F-10.6°C 22% 4.1 mph SW6.6 kmh SW 7.4 mph11.9 kmh 30.09 in1019.0 mb 0.00 in0.0 mm 0.00 in0.0 mm 0.09 in2.3 mm
05:40 PM 50.4°F10.2°C 13.4°F-10.3°C 22% 4.4 mph SW7.1 kmh SW 12.3 mph19.8 kmh 30.09 in1019.0 mb 0.00 in0.0 mm 0.00 in0.0 mm 0.09 in2.3 mm
05:35 PM 50.4°F10.2°C 14.8°F-9.6°C 24% 4.2 mph SW6.8 kmh SW 7.4 mph11.9 kmh 30.09 in1019.0 mb 0.00 in0.0 mm 0.00 in0.0 mm 0.09 in2.3 mm
05:30 PM 50.5°F10.3°C 15.0°F-9.4°C 24% 2.6 mph SW4.2 kmh SW 7.4 mph11.9 kmh 30.09 in1019.0 mb 0.00 in0.0 mm 0.00 in0.0 mm 0.09 in2.3 mm
05:25 PM 50.8°F10.4°C 14.5°F-9.7°C 23% 2.0 mph S3.2 kmh S 7.4 mph11.9 kmh 30.09 in1019.0 mb 0.00 in0.0 mm 0.00 in0.0 mm 0.09 in2.3 mm
05:20 PM 51.0°F10.6°C 14.5°F-9.7°C 23% 3.8 mph SSW6.1 kmh SSW 7.4 mph11.9 kmh 30.09 in1019.0 mb 0.00 in0.0 mm 0.00 in0.0 mm 0.09 in2.3 mm
05:15 PM 51.1°F10.6°C 14.6°F-9.7°C 23% 2.4 mph SW3.9 kmh SW 7.4 mph11.9 kmh 30.09 in1019.0 mb 0.00 in0.0 mm 0.00 in0.0 mm 0.09 in2.3 mm
05:10 PM 51.1°F10.6°C 13.6°F-10.2°C 22% 4.1 mph SW6.6 kmh SW 7.4 mph11.9 kmh 30.09 in1019.0 mb 0.00 in0.0 mm 0.00 in0.0 mm 0.09 in2.3 mm
05:05 PM 51.1°F10.6°C 13.6°F-10.2°C 22% 4.9 mph WSW7.9 kmh WSW 12.3 mph19.8 kmh 30.10 in1019.3 mb 0.00 in0.0 mm 0.00 in0.0 mm 0.09 in2.3 mm
05:00 PM 51.0°F10.6°C 13.5°F-10.3°C 22% 3.6 mph SW5.8 kmh SW 9.8 mph15.8 kmh 30.09 in1019.0 mb 0.00 in0.0 mm 0.00 in0.0 mm 0.09 in2.3 mm
04:55 PM 50.7°F10.4°C 13.4°F-10.3°C 22% 2.6 mph SW4.2 kmh SW 7.4 mph11.9 kmh 30.09 in1019.0 mb 0.00 in0.0 mm 0.00 in0.0 mm 0.09 in2.3 mm
04:50 PM 50.4°F10.2°C 14.7°F-9.6°C 24% 4.2 mph S6.8 kmh S 9.8 mph15.8 kmh 30.09 in1019.0 mb 0.00 in0.0 mm 0.00 in0.0 mm 0.09 in2.3 mm
04:45 PM 50.1°F10.1°C 15.3°F-9.3°C 25% 5.6 mph S9.0 kmh S 12.3 mph19.8 kmh 30.08 in1018.6 mb 0.00 in0.0 mm 0.00 in0.0 mm 0.09 in2.3 mm
04:40 PM 49.9°F9.9°C 16.1°F-8.8°C 26% 5.3 mph SSE8.5 kmh SSE 9.8 mph15.8 kmh 30.08 in1018.6 mb 0.00 in0.0 mm 0.00 in0.0 mm 0.09 in2.3 mm
04:35 PM 49.6°F9.8°C 16.4°F-8.7°C 26% 6.0 mph SSE9.7 kmh SSE 15.0 mph24.1 kmh 30.07 in1018.3 mb 0.01 in0.3 mm 0.00 in0.0 mm 0.09 in2.3 mm
04:30 PM 49.5°F9.7°C 17.0°F-8.3°C 27% 5.3 mph S8.5 kmh S 15.0 mph24.1 kmh 30.08 in1018.6 mb 0.01 in0.3 mm 0.00 in0.0 mm 0.09 in2.3 mm
04:25 PM 49.5°F9.7°C 16.9°F-8.4°C 27% 5.4 mph SSE8.7 kmh SSE 12.3 mph19.8 kmh 30.09 in1019.0 mb 0.01 in0.3 mm 0.00 in0.0 mm 0.09 in2.3 mm
04:20 PM 49.5°F9.7°C 17.8°F-7.9°C 28% 6.4 mph S10.3 kmh S 12.3 mph19.8 kmh 30.08 in1018.6 mb 0.02 in0.5 mm 0.00 in0.0 mm 0.09 in2.3 mm
04:15 PM 49.5°F9.7°C 17.8°F-7.9°C 28% 5.8 mph SSE9.3 kmh SSE 12.3 mph19.8 kmh 30.08 in1018.6 mb 0.02 in0.5 mm 0.00 in0.0 mm 0.09 in2.3 mm
04:10 PM 49.5°F9.7°C 17.7°F-7.9°C 28% 3.3 mph SW5.3 kmh SW 9.8 mph15.8 kmh 30.09 in1019.0 mb 0.02 in0.5 mm 0.00 in0.0 mm 0.09 in2.3 mm
04:05 PM 49.5°F9.7°C 16.9°F-8.4°C 27% 5.5 mph SSW8.9 kmh SSW 12.3 mph19.8 kmh 30.08 in1018.6 mb 0.03 in0.8 mm 0.00 in0.0 mm 0.09 in2.3 mm
04:00 PM 49.5°F9.7°C 16.9°F-8.4°C 27% 8.2 mph S13.2 kmh S 15.0 mph24.1 kmh 30.08 in1018.6 mb 0.03 in0.8 mm 0.00 in0.0 mm 0.09 in2.3 mm
03:55 PM 49.5°F9.7°C 16.9°F-8.4°C 27% 6.3 mph S10.1 kmh S 12.3 mph19.8 kmh 30.08 in1018.6 mb 0.03 in0.8 mm 0.00 in0.0 mm 0.09 in2.3 mm
03:50 PM 49.5°F9.7°C 16.9°F-8.4°C 27% 6.7 mph SSE10.8 kmh SSE 12.3 mph19.8 kmh 30.08 in1018.6 mb 0.03 in0.8 mm 0.00 in0.0 mm 0.09 in2.3 mm
03:45 PM 49.5°F9.7°C 16.6°F-8.6°C 27% 6.3 mph SSE10.1 kmh SSE 12.3 mph19.8 kmh 30.07 in1018.3 mb 0.04 in1.0 mm 0.00 in0.0 mm 0.09 in2.3 mm
03:40 PM 49.5°F9.7°C 16.1°F-8.8°C 26% 8.4 mph SE13.5 kmh SE 15.0 mph24.1 kmh 30.07 in1018.3 mb 0.05 in1.3 mm 0.12 in3.0 mm 0.09 in2.3 mm
03:35 PM 49.6°F9.8°C 15.8°F-9.0°C 26% 6.4 mph S10.3 kmh S 17.4 mph28.0 kmh 30.07 in1018.3 mb 0.04 in1.0 mm 0.00 in0.0 mm 0.08 in2.0 mm
03:30 PM 49.6°F9.8°C 15.2°F-9.3°C 25% 10.4 mph SE16.7 kmh SE 24.8 mph39.9 kmh 30.07 in1018.3 mb 0.04 in1.0 mm 0.00 in0.0 mm 0.08 in2.0 mm
03:25 PM 49.6°F9.8°C 15.3°F-9.3°C 25% 6.9 mph SSE11.1 kmh SSE 15.0 mph24.1 kmh 30.06 in1017.9 mb 0.04 in1.0 mm 0.12 in3.0 mm 0.08 in2.0 mm
03:20 PM 49.8°F9.9°C 15.4°F-9.2°C 25% 6.2 mph SE10.0 kmh SE 17.4 mph28.0 kmh 30.06 in1017.9 mb 0.03 in0.8 mm 0.00 in0.0 mm 0.07 in1.8 mm
03:15 PM 49.8°F9.9°C 14.7°F-9.6°C 24% 7.9 mph SSE12.7 kmh SSE 19.9 mph32.0 kmh 30.06 in1017.9 mb 0.03 in0.8 mm 0.00 in0.0 mm 0.07 in1.8 mm
03:10 PM 50.0°F10.0°C 14.1°F-9.9°C 23% 7.4 mph SSE11.9 kmh SSE 15.0 mph24.1 kmh 30.06 in1017.9 mb 0.03 in0.8 mm 0.00 in0.0 mm 0.07 in1.8 mm
03:05 PM 50.1°F10.1°C 13.7°F-10.2°C 23% 6.7 mph SE10.8 kmh SE 12.3 mph19.8 kmh 30.05 in1017.6 mb 0.04 in1.0 mm 0.00 in0.0 mm 0.06 in1.5 mm
03:00 PM 50.2°F10.1°C 12.7°F-10.7°C 22% 8.7 mph SE14.0 kmh SE 17.4 mph28.0 kmh 30.05 in1017.6 mb 0.04 in1.0 mm 0.00 in0.0 mm 0.06 in1.5 mm
02:55 PM 50.4°F10.2°C 11.6°F-11.3°C 21% 10.5 mph SE16.9 kmh SE 19.9 mph32.0 kmh 30.05 in1017.6 mb 0.04 in1.0 mm 0.00 in0.0 mm 0.06 in1.5 mm
02:50 PM 50.4°F10.2°C 10.7°F-11.8°C 20% 10.9 mph SE17.5 kmh SE 17.4 mph28.0 kmh 30.04 in1017.3 mb 0.04 in1.0 mm 0.12 in3.0 mm 0.06 in1.5 mm
02:45 PM 50.5°F10.3°C 9.2°F-12.7°C 18% 10.4 mph SSE16.7 kmh SSE 17.4 mph28.0 kmh 30.04 in1017.3 mb 0.03 in0.8 mm 0.12 in3.0 mm 0.05 in1.3 mm
02:40 PM 50.5°F10.3°C 8.0°F-13.3°C 18% 9.9 mph SE15.9 kmh SE 17.4 mph28.0 kmh 30.03 in1016.9 mb 0.02 in0.5 mm 0.00 in0.0 mm 0.04 in1.0 mm
02:35 PM 50.5°F10.3°C 8.0°F-13.3°C 18% 10.4 mph SE16.7 kmh SE 17.4 mph28.0 kmh 30.04 in1017.3 mb 0.02 in0.5 mm 0.00 in0.0 mm 0.04 in1.0 mm
02:30 PM 50.4°F10.2°C 8.1°F-13.3°C 18% 10.8 mph SE17.4 kmh SE 24.8 mph39.9 kmh 30.04 in1017.3 mb 0.03 in0.8 mm 0.00 in0.0 mm 0.04 in1.0 mm
02:25 PM 50.4°F10.2°C 7.5°F-13.6°C 17% 10.5 mph SE16.9 kmh SE 19.9 mph32.0 kmh 30.04 in1017.3 mb 0.03 in0.8 mm 0.00 in0.0 mm 0.04 in1.0 mm
02:20 PM 50.4°F10.2°C 7.5°F-13.6°C 17% 12.4 mph ESE20.0 kmh ESE 24.8 mph39.9 kmh 30.04 in1017.3 mb 0.03 in0.8 mm 0.00 in0.0 mm 0.04 in1.0 mm
02:15 PM 50.3°F10.2°C 8.2°F-13.2°C 18% 10.1 mph SE16.3 kmh SE 22.4 mph36.0 kmh 30.04 in1017.3 mb 0.03 in0.8 mm 0.00 in0.0 mm 0.04 in1.0 mm
02:10 PM 50.2°F10.1°C 8.1°F-13.3°C 18% 7.2 mph SE11.6 kmh SE 15.0 mph24.1 kmh 30.04 in1017.3 mb 0.03 in0.8 mm 0.24 in6.1 mm 0.04 in1.0 mm
02:05 PM 50.2°F10.1°C 8.8°F-12.9°C 18% 9.7 mph SE15.6 kmh SE 19.9 mph32.0 kmh 30.04 in1017.3 mb 0.01 in0.3 mm 0.00 in0.0 mm 0.02 in0.5 mm
02:00 PM 50.2°F10.1°C 8.7°F-12.9°C 18% 11.0 mph SE17.7 kmh SE 24.8 mph39.9 kmh 30.04 in1017.3 mb 0.01 in0.3 mm 0.00 in0.0 mm 0.02 in0.5 mm
01:55 PM 50.2°F10.1°C 9.5°F-12.5°C 19% 11.0 mph SE17.7 kmh SE 22.4 mph36.0 kmh 30.04 in1017.3 mb 0.01 in0.3 mm 0.00 in0.0 mm 0.02 in0.5 mm
01:50 PM 50.2°F10.1°C 9.6°F-12.4°C 19% 11.6 mph SE18.7 kmh SE 24.8 mph39.9 kmh 30.04 in1017.3 mb 0.01 in0.3 mm 0.00 in0.0 mm 0.02 in0.5 mm
01:45 PM 50.3°F10.2°C 8.4°F-13.1°C 18% 12.1 mph SE19.5 kmh SE 19.9 mph32.0 kmh 30.04 in1017.3 mb 0.01 in0.3 mm 0.00 in0.0 mm 0.02 in0.5 mm
01:40 PM 50.4°F10.2°C 8.0°F-13.3°C 18% 10.2 mph SE16.4 kmh SE 24.8 mph39.9 kmh 30.04 in1017.3 mb 0.01 in0.3 mm 0.00 in0.0 mm 0.02 in0.5 mm
01:35 PM 50.5°F10.3°C 6.6°F-14.1°C 16% 12.4 mph SE20.0 kmh SE 22.4 mph36.0 kmh 30.03 in1016.9 mb 0.01 in0.3 mm 0.12 in3.0 mm 0.02 in0.5 mm
01:30 PM 50.5°F10.3°C 4.0°F-15.6°C 15% 14.3 mph SE23.0 kmh SE 24.8 mph39.9 kmh 30.04 in1017.3 mb 0.00 in0.0 mm 0.00 in0.0 mm 0.01 in0.3 mm
01:25 PM 50.5°F10.3°C 3.4°F-15.9°C 14% 13.3 mph SE21.4 kmh SE 19.9 mph32.0 kmh 30.05 in1017.6 mb 0.00 in0.0 mm 0.00 in0.0 mm 0.01 in0.3 mm
01:20 PM 50.5°F10.3°C 2.5°F-16.4°C 14% 12.4 mph SE20.0 kmh SE 22.4 mph36.0 kmh 30.05 in1017.6 mb 0.00 in0.0 mm 0.00 in0.0 mm 0.01 in0.3 mm
01:15 PM 50.5°F10.3°C 1.1°F-17.2°C 13% 13.4 mph SE21.6 kmh SE 22.4 mph36.0 kmh 30.04 in1017.3 mb 0.00 in0.0 mm 0.00 in0.0 mm 0.01 in0.3 mm
01:10 PM 50.4°F10.2°C 1.3°F-17.1°C 13% 13.5 mph SE21.7 kmh SE 24.8 mph39.9 kmh 30.04 in1017.3 mb 0.00 in0.0 mm 0.00 in0.0 mm 0.01 in0.3 mm
01:05 PM 50.4°F10.2°C 1.4°F-17.0°C 13% 10.1 mph SE16.3 kmh SE 24.8 mph39.9 kmh 30.05 in1017.6 mb 0.00 in0.0 mm 0.00 in0.0 mm 0.01 in0.3 mm
01:00 PM 50.4°F10.2°C 1.4°F-17.0°C 13% 10.0 mph ESE16.1 kmh ESE 22.4 mph36.0 kmh 30.05 in1017.6 mb 0.00 in0.0 mm 0.00 in0.0 mm 0.01 in0.3 mm
12:55 PM 50.4°F10.2°C 1.0°F-17.2°C 13% 12.3 mph ESE19.8 kmh ESE 22.4 mph36.0 kmh 30.06 in1017.9 mb 0.00 in0.0 mm 0.00 in0.0 mm 0.01 in0.3 mm
12:50 PM 50.4°F10.2°C 0.7°F-17.4°C 13% 12.8 mph SE20.6 kmh SE 22.4 mph36.0 kmh 30.06 in1017.9 mb 0.00 in0.0 mm 0.00 in0.0 mm 0.01 in0.3 mm
12:45 PM 50.4°F10.2°C 1.1°F-17.2°C 13% 11.0 mph SE17.7 kmh SE 19.9 mph32.0 kmh 30.06 in1017.9 mb 0.00 in0.0 mm 0.00 in0.0 mm 0.01 in0.3 mm
12:40 PM 50.2°F10.1°C -0.2°F-17.9°C 12% 12.6 mph ESE20.3 kmh ESE 30.0 mph48.3 kmh 30.07 in1018.3 mb 0.00 in0.0 mm 0.00 in0.0 mm 0.01 in0.3 mm
12:35 PM 50.2°F10.1°C -0.6°F-18.1°C 12% 10.1 mph SE16.3 kmh SE 22.4 mph36.0 kmh 30.07 in1018.3 mb 0.00 in0.0 mm 0.00 in0.0 mm 0.01 in0.3 mm
12:30 PM 50.1°F10.1°C -0.7°F-18.2°C 12% 12.3 mph SE19.8 kmh SE 19.9 mph32.0 kmh 30.07 in1018.3 mb 0.00 in0.0 mm 0.00 in0.0 mm 0.01 in0.3 mm
12:25 PM 50.0°F10.0°C 0.2°F-17.7°C 12% 9.5 mph SE15.3 kmh SE 22.4 mph36.0 kmh 30.07 in1018.3 mb 0.00 in0.0 mm 0.00 in0.0 mm 0.01 in0.3 mm
12:20 PM 49.9°F9.9°C -0.7°F-18.2°C 12% 10.6 mph ESE17.1 kmh ESE 22.4 mph36.0 kmh 30.06 in1017.9 mb 0.00 in0.0 mm 0.00 in0.0 mm 0.01 in0.3 mm
12:15 PM 49.8°F9.9°C -0.7°F-18.2°C 12% 11.7 mph SE18.8 kmh SE 22.4 mph36.0 kmh 30.07 in1018.3 mb 0.00 in0.0 mm 0.00 in0.0 mm 0.01 in0.3 mm
12:10 PM 49.7°F9.8°C -0.5°F-18.1°C 12% 15.5 mph SE24.9 kmh SE 32.4 mph52.1 kmh 30.07 in1018.3 mb 0.00 in0.0 mm 0.00 in0.0 mm 0.01 in0.3 mm
12:05 PM 49.6°F9.8°C 1.5°F-16.9°C 13% 10.9 mph ESE17.5 kmh ESE 19.9 mph32.0 kmh 30.07 in1018.3 mb 0.00 in0.0 mm 0.00 in0.0 mm 0.01 in0.3 mm
12:00 PM 49.5°F9.7°C 1.9°F-16.7°C 14% 15.6 mph SE25.1 kmh SE 30.0 mph48.3 kmh 30.07 in1018.3 mb 0.00 in0.0 mm 0.00 in0.0 mm 0.01 in0.3 mm
11:55 AM 49.5°F9.7°C 2.7°F-16.3°C 14% 12.4 mph SE20.0 kmh SE 24.8 mph39.9 kmh 30.07 in1018.3 mb 0.00 in0.0 mm 0.00 in0.0 mm 0.01 in0.3 mm
11:50 AM 49.4°F9.7°C 4.0°F-15.6°C 15% 13.3 mph SE21.4 kmh SE 27.5 mph44.3 kmh 30.07 in1018.3 mb 0.00 in0.0 mm 0.00 in0.0 mm 0.01 in0.3 mm
11:45 AM 49.3°F9.6°C 5.9°F-14.5°C 17% 13.5 mph ESE21.7 kmh ESE 22.4 mph36.0 kmh 30.07 in1018.3 mb 0.00 in0.0 mm 0.00 in0.0 mm 0.01 in0.3 mm
11:40 AM 49.3°F9.6°C 6.9°F-13.9°C 17% 12.1 mph E19.5 kmh E 17.4 mph28.0 kmh 30.08 in1018.6 mb 0.00 in0.0 mm 0.00 in0.0 mm 0.01 in0.3 mm
11:35 AM 49.3°F9.6°C 7.2°F-13.8°C 18% 12.2 mph ESE19.6 kmh ESE 19.9 mph32.0 kmh 30.09 in1019.0 mb 0.00 in0.0 mm 0.00 in0.0 mm 0.01 in0.3 mm
11:30 AM 49.3°F9.6°C 7.7°F-13.5°C 18% 11.9 mph ESE19.2 kmh ESE 19.9 mph32.0 kmh 30.10 in1019.3 mb 0.00 in0.0 mm 0.00 in0.0 mm 0.01 in0.3 mm
11:25 AM 49.3°F9.6°C 7.1°F-13.8°C 18% 14.4 mph SE23.2 kmh SE 22.4 mph36.0 kmh 30.11 in1019.6 mb 0.00 in0.0 mm 0.00 in0.0 mm 0.01 in0.3 mm
11:20 AM 49.2°F9.6°C 7.6°F-13.6°C 18% 13.6 mph ESE21.9 kmh ESE 22.4 mph36.0 kmh 30.10 in1019.3 mb 0.00 in0.0 mm 0.00 in0.0 mm 0.01 in0.3 mm
11:15 AM 49.1°F9.5°C 7.3°F-13.7°C 18% 11.9 mph ESE19.2 kmh ESE 17.4 mph28.0 kmh 30.11 in1019.6 mb 0.00 in0.0 mm 0.00 in0.0 mm 0.01 in0.3 mm
11:10 AM 49.1°F9.5°C 8.6°F-13.0°C 19% 7.7 mph E12.4 kmh E 17.4 mph28.0 kmh 30.12 in1020.0 mb 0.00 in0.0 mm 0.00 in0.0 mm 0.01 in0.3 mm
11:05 AM 49.1°F9.5°C 8.0°F-13.3°C 18% 9.1 mph E14.6 kmh E 19.9 mph32.0 kmh 30.11 in1019.6 mb 0.00 in0.0 mm 0.00 in0.0 mm 0.01 in0.3 mm
11:00 AM 49.1°F9.5°C 7.6°F-13.6°C 18% 12.1 mph E19.5 kmh E 19.9 mph32.0 kmh 30.12 in1020.0 mb 0.00 in0.0 mm 0.00 in0.0 mm 0.01 in0.3 mm
10:55 AM 49.0°F9.4°C 8.3°F-13.2°C 19% 10.5 mph E16.9 kmh E 17.4 mph28.0 kmh 30.11 in1019.6 mb 0.00 in0.0 mm 0.00 in0.0 mm 0.01 in0.3 mm
10:50 AM 48.9°F9.4°C 7.4°F-13.7°C 18% 10.3 mph ESE16.6 kmh ESE 17.4 mph28.0 kmh 30.11 in1019.6 mb 0.00 in0.0 mm 0.00 in0.0 mm 0.01 in0.3 mm
10:45 AM 48.9°F9.4°C 7.8°F-13.4°C 18% 9.2 mph SE14.8 kmh SE 15.0 mph24.1 kmh 30.12 in1020.0 mb 0.00 in0.0 mm 0.00 in0.0 mm 0.01 in0.3 mm
10:40 AM 48.8°F9.3°C 7.9°F-13.4°C 19% 10.0 mph SE16.1 kmh SE 17.4 mph28.0 kmh 30.12 in1020.0 mb 0.00 in0.0 mm 0.00 in0.0 mm 0.01 in0.3 mm
10:35 AM 48.7°F9.3°C 7.4°F-13.7°C 18% 11.6 mph ESE18.7 kmh ESE 17.4 mph28.0 kmh 30.12 in1020.0 mb 0.00 in0.0 mm 0.00 in0.0 mm 0.01 in0.3 mm
10:30 AM 48.7°F9.3°C 7.5°F-13.6°C 18% 10.8 mph SE17.4 kmh SE 17.4 mph28.0 kmh 30.13 in1020.3 mb 0.00 in0.0 mm 0.00 in0.0 mm 0.01 in0.3 mm
10:25 AM 48.6°F9.2°C 8.2°F-13.2°C 19% 10.5 mph ESE16.9 kmh ESE 17.4 mph28.0 kmh 30.13 in1020.3 mb 0.00 in0.0 mm 0.00 in0.0 mm 0.01 in0.3 mm
10:20 AM 48.6°F9.2°C 9.2°F-12.7°C 20% 9.3 mph ESE15.0 kmh ESE 17.4 mph28.0 kmh 30.14 in1020.7 mb 0.00 in0.0 mm 0.00 in0.0 mm 0.01 in0.3 mm
10:15 AM 48.5°F9.2°C 8.1°F-13.3°C 19% 12.2 mph E19.6 kmh E 17.4 mph28.0 kmh 30.14 in1020.7 mb 0.00 in0.0 mm 0.00 in0.0 mm 0.01 in0.3 mm
10:10 AM 48.4°F9.1°C 8.1°F-13.3°C 19% 11.5 mph ESE18.5 kmh ESE 17.4 mph28.0 kmh 30.14 in1020.7 mb 0.00 in0.0 mm 0.00 in0.0 mm 0.01 in0.3 mm
10:05 AM 48.4°F9.1°C 8.0°F-13.3°C 19% 10.6 mph E17.1 kmh E 17.4 mph28.0 kmh 30.14 in1020.7 mb 0.00 in0.0 mm 0.00 in0.0 mm 0.01 in0.3 mm
10:00 AM 48.2°F9.0°C 8.0°F-13.3°C 19% 9.0 mph ESE14.5 kmh ESE 15.0 mph24.1 kmh 30.15 in1021.0 mb 0.00 in0.0 mm 0.00 in0.0 mm 0.01 in0.3 mm
09:55 AM 48.2°F9.0°C 8.6°F-13.0°C 20% 6.6 mph ESE10.6 kmh ESE 12.3 mph19.8 kmh 30.16 in1021.3 mb 0.00 in0.0 mm 0.00 in0.0 mm 0.01 in0.3 mm
09:50 AM 48.2°F9.0°C 8.9°F-12.8°C 20% 7.6 mph E12.2 kmh E 12.3 mph19.8 kmh 30.16 in1021.3 mb 0.00 in0.0 mm 0.00 in0.0 mm 0.01 in0.3 mm
09:45 AM 48.0°F8.9°C 9.1°F-12.7°C 20% 8.0 mph E12.9 kmh E 15.0 mph24.1 kmh 30.16 in1021.3 mb 0.00 in0.0 mm 0.00 in0.0 mm 0.01 in0.3 mm
09:40 AM 48.0°F8.9°C 9.6°F-12.4°C 21% 7.2 mph E11.6 kmh E 12.3 mph19.8 kmh 30.16 in1021.3 mb 0.00 in0.0 mm 0.00 in0.0 mm 0.01 in0.3 mm
09:35 AM 48.0°F8.9°C 9.9°F-12.3°C 21% 6.2 mph E10.0 kmh E 9.8 mph15.8 kmh 30.17 in1021.7 mb 0.00 in0.0 mm 0.00 in0.0 mm 0.01 in0.3 mm
09:30 AM 47.8°F8.8°C 9.5°F-12.5°C 21% 8.1 mph ESE13.0 kmh ESE 12.3 mph19.8 kmh 30.17 in1021.7 mb 0.00 in0.0 mm 0.00 in0.0 mm 0.01 in0.3 mm
09:25 AM 47.8°F8.8°C 9.8°F-12.3°C 21% 7.2 mph ESE11.6 kmh ESE 15.0 mph24.1 kmh 30.16 in1021.3 mb 0.00 in0.0 mm 0.00 in0.0 mm 0.01 in0.3 mm
09:20 AM 47.8°F8.8°C 9.8°F-12.3°C 21% 7.6 mph SE12.2 kmh SE 15.0 mph24.1 kmh 30.17 in1021.7 mb 0.00 in0.0 mm 0.00 in0.0 mm 0.01 in0.3 mm
09:15 AM 47.8°F8.8°C 10.5°F-11.9°C 22% 7.1 mph ESE11.4 kmh ESE 12.3 mph19.8 kmh 30.17 in1021.7 mb 0.00 in0.0 mm 0.00 in0.0 mm 0.01 in0.3 mm
09:10 AM 47.7°F8.7°C 10.5°F-11.9°C 22% 6.9 mph ESE11.1 kmh ESE 17.4 mph28.0 kmh 30.17 in1021.7 mb 0.00 in0.0 mm 0.00 in0.0 mm 0.01 in0.3 mm
09:05 AM 47.7°F8.7°C 10.4°F-12.0°C 22% 7.0 mph ESE11.3 kmh ESE 9.8 mph15.8 kmh 30.17 in1021.7 mb 0.00 in0.0 mm 0.00 in0.0 mm 0.01 in0.3 mm
09:00 AM 47.7°F8.7°C 10.3°F-12.1°C 22% 5.5 mph SE8.9 kmh SE 9.8 mph15.8 kmh 30.17 in1021.7 mb 0.00 in0.0 mm 0.00 in0.0 mm 0.01 in0.3 mm
08:55 AM 47.7°F8.7°C 9.7°F-12.4°C 21% 8.5 mph SE13.7 kmh SE 15.0 mph24.1 kmh 30.17 in1021.7 mb 0.00 in0.0 mm 0.00 in0.0 mm 0.01 in0.3 mm
08:50 AM 47.7°F8.7°C 10.4°F-12.0°C 22% 5.2 mph SE8.4 kmh SE 12.3 mph19.8 kmh 30.18 in1022.0 mb 0.01 in0.3 mm 0.00 in0.0 mm 0.01 in0.3 mm
08:45 AM 47.7°F8.7°C 9.8°F-12.3°C 21% 4.8 mph SE7.7 kmh SE 12.3 mph19.8 kmh 30.18 in1022.0 mb 0.01 in0.3 mm 0.00 in0.0 mm 0.01 in0.3 mm
08:40 AM 47.7°F8.7°C 9.7°F-12.4°C 21% 7.4 mph ESE11.9 kmh ESE 15.0 mph24.1 kmh 30.18 in1022.0 mb 0.01 in0.3 mm 0.00 in0.0 mm 0.01 in0.3 mm
08:35 AM 47.7°F8.7°C 9.7°F-12.4°C 21% 3.0 mph SE4.8 kmh SE 7.4 mph11.9 kmh 30.18 in1022.0 mb 0.01 in0.3 mm 0.00 in0.0 mm 0.01 in0.3 mm
08:30 AM 47.5°F8.6°C 8.9°F-12.8°C 20% 5.7 mph SE9.2 kmh SE 12.3 mph19.8 kmh 30.19 in1022.4 mb 0.01 in0.3 mm 0.00 in0.0 mm 0.01 in0.3 mm
08:25 AM 47.5°F8.6°C 9.5°F-12.5°C 21% 3.9 mph SE6.3 kmh SE 7.4 mph11.9 kmh 30.19 in1022.4 mb 0.01 in0.3 mm 0.00 in0.0 mm 0.01 in0.3 mm
08:20 AM 47.5°F8.6°C 9.5°F-12.5°C 21% 3.0 mph SE4.8 kmh SE 7.4 mph11.9 kmh 30.19 in1022.4 mb 0.01 in0.3 mm 0.00 in0.0 mm 0.01 in0.3 mm
08:15 AM 47.4°F8.6°C 9.4°F-12.6°C 21% 4.0 mph SE6.4 kmh SE 7.4 mph11.9 kmh 30.19 in1022.4 mb 0.01 in0.3 mm 0.00 in0.0 mm 0.01 in0.3 mm
08:10 AM 47.3°F8.5°C 9.4°F-12.6°C 21% 2.6 mph SE4.2 kmh SE 7.4 mph11.9 kmh 30.19 in1022.4 mb 0.01 in0.3 mm 0.00 in0.0 mm 0.01 in0.3 mm
08:05 AM 47.3°F8.5°C 8.9°F-12.8°C 21% 2.0 mph SSE3.2 kmh SSE 7.4 mph11.9 kmh 30.19 in1022.4 mb 0.01 in0.3 mm 0.00 in0.0 mm 0.01 in0.3 mm
08:00 AM 47.3°F8.5°C 9.4°F-12.6°C 21% 3.1 mph SSE5.0 kmh SSE 7.4 mph11.9 kmh 30.19 in1022.4 mb 0.01 in0.3 mm 0.00 in0.0 mm 0.01 in0.3 mm
07:55 AM 47.3°F8.5°C 9.2°F-12.7°C 21% 4.8 mph SE7.7 kmh SE 12.3 mph19.8 kmh 30.19 in1022.4 mb 0.01 in0.3 mm 0.12 in3.0 mm 0.01 in0.3 mm
07:50 AM 47.1°F8.4°C 9.3°F-12.6°C 21% 2.5 mph SE4.0 kmh SE 7.4 mph11.9 kmh 30.19 in1022.4 mb 0.00 in0.0 mm 0.00 in0.0 mm 0.00 in0.0 mm
07:45 AM 47.1°F8.4°C 9.2°F-12.7°C 21% 4.3 mph SE6.9 kmh SE 9.8 mph15.8 kmh 30.19 in1022.4 mb 0.00 in0.0 mm 0.00 in0.0 mm 0.00 in0.0 mm
07:40 AM 47.1°F8.4°C 9.4°F-12.6°C 21% 3.9 mph SSE6.3 kmh SSE 9.8 mph15.8 kmh 30.19 in1022.4 mb 0.00 in0.0 mm 0.00 in0.0 mm 0.00 in0.0 mm
07:35 AM 47.1°F8.4°C 9.0°F-12.8°C 21% 3.6 mph SE5.8 kmh SE 7.4 mph11.9 kmh 30.19 in1022.4 mb 0.00 in0.0 mm 0.00 in0.0 mm 0.00 in0.0 mm
07:30 AM 47.1°F8.4°C 8.8°F-12.9°C 21% 4.7 mph SE7.6 kmh SE 9.8 mph15.8 kmh 30.20 in1022.7 mb 0.00 in0.0 mm 0.00 in0.0 mm 0.00 in0.0 mm
07:25 AM 47.0°F8.3°C 8.9°F-12.8°C 21% 2.9 mph SE4.7 kmh SE 4.9 mph7.9 kmh 30.20 in1022.7 mb 0.00 in0.0 mm 0.00 in0.0 mm 0.00 in0.0 mm
07:20 AM 46.9°F8.3°C 8.9°F-12.8°C 21% 3.0 mph SE4.8 kmh SE 7.4 mph11.9 kmh 30.20 in1022.7 mb 0.00 in0.0 mm 0.00 in0.0 mm 0.00 in0.0 mm
07:15 AM 46.9°F8.3°C 9.0°F-12.8°C 21% 3.4 mph SE5.5 kmh SE 7.4 mph11.9 kmh 30.21 in1023.0 mb 0.00 in0.0 mm 0.00 in0.0 mm 0.00 in0.0 mm
07:10 AM 46.9°F8.3°C 8.8°F-12.9°C 21% 3.7 mph SE6.0 kmh SE 9.8 mph15.8 kmh 30.21 in1023.0 mb 0.00 in0.0 mm 0.00 in0.0 mm 0.00 in0.0 mm
07:05 AM 46.9°F8.3°C 9.0°F-12.8°C 21% 2.0 mph SSE3.2 kmh SSE 4.9 mph7.9 kmh 30.21 in1023.0 mb 0.00 in0.0 mm 0.00 in0.0 mm 0.00 in0.0 mm
07:00 AM 46.9°F8.3°C 9.5°F-12.5°C 21% 0.1 mph SE0.2 kmh SE 2.5 mph4.0 kmh 30.21 in1023.0 mb 0.00 in0.0 mm 0.00 in0.0 mm 0.00 in0.0 mm
06:55 AM 46.9°F8.3°C 9.0°F-12.8°C 21% 1.6 mph SE2.6 kmh SE 4.9 mph7.9 kmh 30.21 in1023.0 mb 0.00 in0.0 mm 0.00 in0.0 mm 0.00 in0.0 mm
06:50 AM 46.9°F8.3°C 9.0°F-12.8°C 21% 0.9 mph SE1.4 kmh SE 2.5 mph4.0 kmh 30.21 in1023.0 mb 0.00 in0.0 mm 0.00 in0.0 mm 0.00 in0.0 mm
06:45 AM 46.9°F8.3°C 9.2°F-12.7°C 21% 1.3 mph SE2.1 kmh SE 4.9 mph7.9 kmh 30.21 in1023.0 mb 0.00 in0.0 mm 0.00 in0.0 mm 0.00 in0.0 mm
06:40 AM 46.9°F8.3°C 9.5°F-12.5°C 21% 0.1 mph SE0.2 kmh SE 4.9 mph7.9 kmh 30.22 in1023.4 mb 0.00 in0.0 mm 0.00 in0.0 mm 0.00 in0.0 mm
06:35 AM 46.9°F8.3°C 9.0°F-12.8°C 21% 2.1 mph E3.4 kmh E 7.4 mph11.9 kmh 30.21 in1023.0 mb 0.00 in0.0 mm 0.00 in0.0 mm 0.00 in0.0 mm
06:30 AM 46.9°F8.3°C 9.0°F-12.8°C 21% 1.0 mph ESE1.6 kmh ESE 4.9 mph7.9 kmh 30.21 in1023.0 mb 0.00 in0.0 mm 0.00 in0.0 mm 0.00 in0.0 mm
06:25 AM 46.9°F8.3°C 9.2°F-12.7°C 21% 1.4 mph SSE2.3 kmh SSE 4.9 mph7.9 kmh 30.21 in1023.0 mb 0.00 in0.0 mm 0.00 in0.0 mm 0.00 in0.0 mm
06:20 AM 47.1°F8.4°C 9.2°F-12.7°C 21% 1.4 mph SSE2.3 kmh SSE 4.9 mph7.9 kmh 30.21 in1023.0 mb 0.00 in0.0 mm 0.00 in0.0 mm 0.00 in0.0 mm
06:15 AM 47.1°F8.4°C 9.2°F-12.7°C 21% 3.6 mph SE5.8 kmh SE 7.4 mph11.9 kmh 30.21 in1023.0 mb 0.00 in0.0 mm 0.00 in0.0 mm 0.00 in0.0 mm
06:10 AM 47.1°F8.4°C 8.9°F-12.8°C 21% 3.2 mph SE5.1 kmh SE 9.8 mph15.8 kmh 30.22 in1023.4 mb 0.00 in0.0 mm 0.00 in0.0 mm 0.00 in0.0 mm
06:05 AM 47.3°F8.5°C 8.8°F-12.9°C 20% 4.1 mph SSE6.6 kmh SSE 7.4 mph11.9 kmh 30.22 in1023.4 mb 0.00 in0.0 mm 0.00 in0.0 mm 0.00 in0.0 mm
06:00 AM 47.3°F8.5°C 8.3°F-13.2°C 20% 4.6 mph SE7.4 kmh SE 9.8 mph15.8 kmh 30.22 in1023.4 mb 0.00 in0.0 mm 0.00 in0.0 mm 0.00 in0.0 mm
05:55 AM 47.3°F8.5°C 8.9°F-12.8°C 21% 4.3 mph SE6.9 kmh SE 9.8 mph15.8 kmh 30.22 in1023.4 mb 0.00 in0.0 mm 0.00 in0.0 mm 0.00 in0.0 mm
05:50 AM 47.3°F8.5°C 8.9°F-12.8°C 21% 4.1 mph SE6.6 kmh SE 9.8 mph15.8 kmh 30.22 in1023.4 mb 0.00 in0.0 mm 0.00 in0.0 mm 0.00 in0.0 mm
05:45 AM 47.3°F8.5°C 8.7°F-12.9°C 20% 4.3 mph SE6.9 kmh SE 7.4 mph11.9 kmh 30.23 in1023.7 mb 0.00 in0.0 mm 0.00 in0.0 mm 0.00 in0.0 mm
05:40 AM 47.3°F8.5°C 8.5°F-13.1°C 20% 4.6 mph SE7.4 kmh SE 7.4 mph11.9 kmh 30.23 in1023.7 mb 0.00 in0.0 mm 0.00 in0.0 mm 0.00 in0.0 mm
05:35 AM 47.3°F8.5°C 8.4°F-13.1°C 20% 5.2 mph SE8.4 kmh SE 12.3 mph19.8 kmh 30.23 in1023.7 mb 0.00 in0.0 mm 0.00 in0.0 mm 0.00 in0.0 mm
05:30 AM 47.3°F8.5°C 8.8°F-12.9°C 20% 5.9 mph SE9.5 kmh SE 15.0 mph24.1 kmh 30.23 in1023.7 mb 0.00 in0.0 mm 0.00 in0.0 mm 0.00 in0.0 mm
05:25 AM 47.3°F8.5°C 9.4°F-12.6°C 21% 5.0 mph S8.0 kmh S 9.8 mph15.8 kmh 30.23 in1023.7 mb 0.00 in0.0 mm 0.00 in0.0 mm 0.00 in0.0 mm
05:20 AM 47.3°F8.5°C 10.1°F-12.2°C 22% 4.8 mph SSE7.7 kmh SSE 15.0 mph24.1 kmh 30.23 in1023.7 mb 0.00 in0.0 mm 0.00 in0.0 mm 0.00 in0.0 mm
05:15 AM 47.3°F8.5°C 11.3°F-11.5°C 23% 3.9 mph S6.3 kmh S 9.8 mph15.8 kmh 30.23 in1023.7 mb 0.00 in0.0 mm 0.00 in0.0 mm 0.00 in0.0 mm
05:10 AM 47.3°F8.5°C 11.4°F-11.4°C 23% 3.1 mph S5.0 kmh S 7.4 mph11.9 kmh 30.23 in1023.7 mb 0.00 in0.0 mm 0.00 in0.0 mm 0.00 in0.0 mm
05:05 AM 47.3°F8.5°C 12.2°F-11.0°C 24% 3.9 mph SSE6.3 kmh SSE 9.8 mph15.8 kmh 30.23 in1023.7 mb 0.00 in0.0 mm 0.00 in0.0 mm 0.00 in0.0 mm
05:00 AM 47.3°F8.5°C 12.4°F-10.9°C 24% 2.3 mph S3.7 kmh S 7.4 mph11.9 kmh 30.23 in1023.7 mb 0.00 in0.0 mm 0.00 in0.0 mm 0.00 in0.0 mm
04:55 AM 47.3°F8.5°C 12.9°F-10.6°C 25% 3.1 mph SSE5.0 kmh SSE 7.4 mph11.9 kmh 30.23 in1023.7 mb 0.00 in0.0 mm 0.00 in0.0 mm 0.00 in0.0 mm
04:50 AM 47.3°F8.5°C 13.3°F-10.4°C 25% 2.0 mph S3.2 kmh S 7.4 mph11.9 kmh 30.23 in1023.7 mb 0.00 in0.0 mm 0.00 in0.0 mm 0.00 in0.0 mm
04:45 AM 47.3°F8.5°C 13.1°F-10.5°C 25% 2.8 mph SE4.5 kmh SE 7.4 mph11.9 kmh 30.23 in1023.7 mb 0.00 in0.0 mm 0.00 in0.0 mm 0.00 in0.0 mm
04:35 AM 47.3°F8.5°C 13.3°F-10.4°C 25% 4.7 mph SE7.6 kmh SE 9.8 mph15.8 kmh 30.22 in1023.4 mb 0.00 in0.0 mm 0.00 in0.0 mm 0.00 in0.0 mm
04:30 AM 47.3°F8.5°C 13.3°F-10.4°C 25% 3.4 mph SE5.5 kmh SE 7.4 mph11.9 kmh 30.23 in1023.7 mb 0.00 in0.0 mm 0.00 in0.0 mm 0.00 in0.0 mm
04:25 AM 47.3°F8.5°C 12.9°F-10.6°C 25% 1.1 mph SE1.8 kmh SE 4.9 mph7.9 kmh 30.23 in1023.7 mb 0.00 in0.0 mm 0.00 in0.0 mm 0.00 in0.0 mm
04:20 AM 47.3°F8.5°C 12.8°F-10.7°C 24% 4.1 mph SE6.6 kmh SE 9.8 mph15.8 kmh 30.22 in1023.4 mb 0.00 in0.0 mm 0.00 in0.0 mm 0.00 in0.0 mm
04:15 AM 47.3°F8.5°C 12.7°F-10.7°C 24% 4.6 mph SE7.4 kmh SE 9.8 mph15.8 kmh 30.23 in1023.7 mb 0.00 in0.0 mm 0.00 in0.0 mm 0.00 in0.0 mm
04:10 AM 47.5°F8.6°C 13.5°F-10.3°C 25% 2.7 mph SE4.3 kmh SE 9.8 mph15.8 kmh 30.23 in1023.7 mb 0.00 in0.0 mm 0.00 in0.0 mm 0.00 in0.0 mm
04:05 AM 47.5°F8.6°C 13.5°F-10.3°C 25% 1.1 mph SE1.8 kmh SE 2.5 mph4.0 kmh 30.23 in1023.7 mb 0.00 in0.0 mm 0.00 in0.0 mm 0.00 in0.0 mm
04:00 AM 47.5°F8.6°C 13.1°F-10.5°C 25% 2.1 mph SE3.4 kmh SE 4.9 mph7.9 kmh 30.23 in1023.7 mb 0.00 in0.0 mm 0.00 in0.0 mm 0.00 in0.0 mm
03:55 AM 47.5°F8.6°C 13.5°F-10.3°C 25% Calm Calm -- 30.23 in1023.7 mb 0.00 in0.0 mm 0.00 in0.0 mm 0.00 in0.0 mm
03:50 AM 47.7°F8.7°C 13.6°F-10.2°C 25% Calm Calm -- 30.23 in1023.7 mb 0.00 in0.0 mm 0.00 in0.0 mm 0.00 in0.0 mm
03:45 AM 47.5°F8.6°C 13.5°F-10.3°C 25% Calm Calm -- 30.24 in1024.0 mb 0.00 in0.0 mm 0.00 in0.0 mm 0.00 in0.0 mm
03:40 AM 47.3°F8.5°C 13.3°F-10.4°C 25% Calm Calm -- 30.24 in1024.0 mb 0.00 in0.0 mm 0.00 in0.0 mm 0.00 in0.0 mm
03:35 AM 46.9°F8.3°C 13.0°F-10.6°C 25% Calm Calm -- 30.24 in1024.0 mb 0.00 in0.0 mm 0.00 in0.0 mm 0.00 in0.0 mm
03:30 AM 46.4°F8.0°C 13.4°F-10.3°C 26% 0.4 mph S0.6 kmh S 2.5 mph4.0 kmh 30.23 in1023.7 mb 0.00 in0.0 mm 0.00 in0.0 mm 0.00 in0.0 mm
03:25 AM 45.9°F7.7°C 12.9°F-10.6°C 26% 1.7 mph S2.7 kmh S 4.9 mph7.9 kmh 30.23 in1023.7 mb 0.00 in0.0 mm 0.00 in0.0 mm 0.00 in0.0 mm
03:20 AM 45.3°F7.4°C 13.1°F-10.5°C 27% 3.3 mph S5.3 kmh S 9.8 mph15.8 kmh 30.23 in1023.7 mb 0.00 in0.0 mm 0.00 in0.0 mm 0.00 in0.0 mm
03:15 AM 44.9°F7.2°C 13.7°F-10.2°C 28% 1.6 mph SSW2.6 kmh SSW 4.9 mph7.9 kmh 30.23 in1023.7 mb 0.00 in0.0 mm 0.00 in0.0 mm 0.00 in0.0 mm
03:10 AM 44.6°F7.0°C 13.5°F-10.3°C 28% 1.3 mph SW2.1 kmh SW 7.4 mph11.9 kmh 30.23 in1023.7 mb 0.00 in0.0 mm 0.00 in0.0 mm 0.00 in0.0 mm
03:05 AM 44.4°F6.9°C 13.1°F-10.5°C 28% 0.8 mph SE1.3 kmh SE 7.4 mph11.9 kmh 30.23 in1023.7 mb 0.00 in0.0 mm 0.00 in0.0 mm 0.00 in0.0 mm
03:00 AM 44.4°F6.9°C 12.5°F-10.8°C 27% Calm Calm -- 30.23 in1023.7 mb 0.00 in0.0 mm 0.00 in0.0 mm 0.00 in0.0 mm
02:55 AM 44.4°F6.9°C 11.8°F-11.2°C 26% Calm Calm 2.5 mph4.0 kmh 30.24 in1024.0 mb 0.00 in0.0 mm 0.00 in0.0 mm 0.00 in0.0 mm
02:50 AM 44.4°F6.9°C 11.7°F-11.3°C 26% 1.7 mph W2.7 kmh W 4.9 mph7.9 kmh 30.24 in1024.0 mb 0.00 in0.0 mm 0.00 in0.0 mm 0.00 in0.0 mm
02:45 AM 44.4°F6.9°C 12.2°F-11.0°C 27% 1.6 mph W2.6 kmh W 4.9 mph7.9 kmh 30.23 in1023.7 mb 0.00 in0.0 mm 0.00 in0.0 mm 0.00 in0.0 mm
02:40 AM 44.4°F6.9°C 11.8°F-11.2°C 26% 1.8 mph W2.9 kmh W 4.9 mph7.9 kmh 30.23 in1023.7 mb 0.00 in0.0 mm 0.00 in0.0 mm 0.00 in0.0 mm
02:35 AM 44.4°F6.9°C 12.5°F-10.8°C 27% 1.1 mph W1.8 kmh W 4.9 mph7.9 kmh 30.23 in1023.7 mb 0.00 in0.0 mm 0.00 in0.0 mm 0.00 in0.0 mm
02:30 AM 44.4°F6.9°C 12.6°F-10.8°C 27% 0.2 mph W0.3 kmh W 4.9 mph7.9 kmh 30.23 in1023.7 mb 0.00 in0.0 mm 0.00 in0.0 mm 0.00 in0.0 mm
02:25 AM 44.3°F6.8°C 12.4°F-10.9°C 27% Calm Calm -- 30.23 in1023.7 mb 0.00 in0.0 mm 0.00 in0.0 mm 0.00 in0.0 mm
02:20 AM 44.2°F6.8°C 13.2°F-10.4°C 28% Calm Calm -- 30.23 in1023.7 mb 0.00 in0.0 mm 0.00 in0.0 mm 0.00 in0.0 mm
02:15 AM 44.2°F6.8°C 12.7°F-10.7°C 27% Calm Calm -- 30.23 in1023.7 mb 0.00 in0.0 mm 0.00 in0.0 mm 0.00 in0.0 mm
02:10 AM 44.2°F6.8°C 12.6°F-10.8°C 27% Calm Calm -- 30.23 in1023.7 mb 0.00 in0.0 mm 0.00 in0.0 mm 0.00 in0.0 mm
02:05 AM 44.5°F6.9°C 12.8°F-10.7°C 27% Calm Calm -- 30.23 in1023.7 mb 0.00 in0.0 mm 0.00 in0.0 mm 0.00 in0.0 mm
02:00 AM 44.7°F7.1°C 13.0°F-10.6°C 27% Calm Calm -- 30.24 in1024.0 mb 0.00 in0.0 mm 0.00 in0.0 mm 0.00 in0.0 mm
01:55 AM 45.1°F7.3°C 12.6°F-10.8°C 26% Calm Calm -- 30.24 in1024.0 mb 0.00 in0.0 mm 0.00 in0.0 mm 0.00 in0.0 mm
01:50 AM 45.5°F7.5°C 11.9°F-11.2°C 25% Calm Calm -- 30.23 in1023.7 mb 0.00 in0.0 mm 0.00 in0.0 mm 0.00 in0.0 mm
01:45 AM 45.9°F7.7°C 13.0°F-10.6°C 26% Calm Calm -- 30.23 in1023.7 mb 0.00 in0.0 mm 0.00 in0.0 mm 0.00 in0.0 mm
01:40 AM 46.3°F7.9°C 12.1°F-11.1°C 25% Calm Calm -- 30.23 in1023.7 mb 0.00 in0.0 mm 0.00 in0.0 mm 0.00 in0.0 mm
01:35 AM 46.6°F8.1°C 12.3°F-10.9°C 25% Calm Calm -- 30.23 in1023.7 mb 0.00 in0.0 mm 0.00 in0.0 mm 0.00 in0.0 mm
01:30 AM 46.5°F8.1°C 9.9°F-12.3°C 22% Calm Calm -- 30.23 in1023.7 mb 0.00 in0.0 mm 0.00 in0.0 mm 0.00 in0.0 mm
01:25 AM 46.1°F7.8°C 9.0°F-12.8°C 22% Calm Calm -- 30.22 in1023.4 mb 0.00 in0.0 mm 0.00 in0.0 mm 0.00 in0.0 mm
01:20 AM 45.4°F7.4°C 7.1°F-13.8°C 20% Calm Calm -- 30.22 in1023.4 mb 0.00 in0.0 mm 0.00 in0.0 mm 0.00 in0.0 mm
01:15 AM 44.5°F6.9°C 4.7°F-15.2°C 19% 0.1 mph SW0.2 kmh SW 2.5 mph4.0 kmh 30.22 in1023.4 mb 0.00 in0.0 mm 0.00 in0.0 mm 0.00 in0.0 mm
01:10 AM 43.6°F6.4°C 5.2°F-14.9°C 20% 3.0 mph SW4.8 kmh SW 9.8 mph15.8 kmh 30.22 in1023.4 mb 0.00 in0.0 mm 0.00 in0.0 mm 0.00 in0.0 mm
01:05 AM 42.7°F5.9°C 9.4°F-12.6°C 25% 2.7 mph WSW4.3 kmh WSW 4.9 mph7.9 kmh 30.22 in1023.4 mb 0.00 in0.0 mm 0.00 in0.0 mm 0.00 in0.0 mm
01:00 AM 42.1°F5.6°C 10.7°F-11.8°C 27% 2.4 mph WSW3.9 kmh WSW 4.9 mph7.9 kmh 30.22 in1023.4 mb 0.00 in0.0 mm 0.00 in0.0 mm 0.00 in0.0 mm
12:55 AM 41.5°F5.3°C 11.5°F-11.4°C 29% 3.6 mph W5.8 kmh W 7.4 mph11.9 kmh 30.22 in1023.4 mb 0.00 in0.0 mm 0.00 in0.0 mm 0.00 in0.0 mm
12:50 AM 41.2°F5.1°C 11.4°F-11.4°C 29% 2.6 mph W4.2 kmh W 7.4 mph11.9 kmh 30.22 in1023.4 mb 0.00 in0.0 mm 0.00 in0.0 mm 0.00 in0.0 mm
12:45 AM 41.0°F5.0°C 11.4°F-11.4°C 29% 0.8 mph WNW1.3 kmh WNW 2.5 mph4.0 kmh 30.22 in1023.4 mb 0.00 in0.0 mm 0.00 in0.0 mm 0.00 in0.0 mm
12:40 AM 40.7°F4.8°C 11.3°F-11.5°C 29% Calm Calm 2.5 mph4.0 kmh 30.22 in1023.4 mb 0.00 in0.0 mm 0.00 in0.0 mm 0.00 in0.0 mm
12:35 AM 40.6°F4.8°C 11.0°F-11.7°C 29% 0.9 mph W1.4 kmh W 4.9 mph7.9 kmh 30.21 in1023.0 mb 0.00 in0.0 mm 0.00 in0.0 mm 0.00 in0.0 mm
12:30 AM 40.5°F4.7°C 10.8°F-11.8°C 29% 2.8 mph W4.5 kmh W 7.4 mph11.9 kmh 30.21 in1023.0 mb 0.00 in0.0 mm 0.00 in0.0 mm 0.00 in0.0 mm
12:25 AM 40.3°F4.6°C 10.6°F-11.9°C 29% 3.5 mph W5.6 kmh W 7.4 mph11.9 kmh 30.21 in1023.0 mb 0.00 in0.0 mm 0.00 in0.0 mm 0.00 in0.0 mm
12:20 AM 40.0°F4.4°C 10.5°F-11.9°C 29% 3.8 mph W6.1 kmh W 7.4 mph11.9 kmh 30.21 in1023.0 mb 0.00 in0.0 mm 0.00 in0.0 mm 0.00 in0.0 mm
12:15 AM 39.8°F4.3°C 10.6°F-11.9°C 30% 2.8 mph W4.5 kmh W 7.4 mph11.9 kmh 30.21 in1023.0 mb 0.00 in0.0 mm 0.00 in0.0 mm 0.00 in0.0 mm
12:10 AM 39.6°F4.2°C 10.5°F-11.9°C 30% 1.2 mph W1.9 kmh W 4.9 mph7.9 kmh 30.21 in1023.0 mb 0.00 in0.0 mm 0.00 in0.0 mm 0.00 in0.0 mm
12:05 AM 39.6°F4.2°C 10.2°F-12.1°C 29% 1.6 mph W2.6 kmh W 7.4 mph11.9 kmh 30.21 in1023.0 mb 0.00 in0.0 mm 0.00 in0.0 mm 0.00 in0.0 mm
12:00 AM 39.6°F4.2°C 10.0°F-12.2°C 29% 3.7 mph W6.0 kmh W 7.4 mph11.9 kmh 30.20 in1022.7 mb 0.00 in0.0 mm 0.00 in0.0 mm 0.00 in0.0 mm